createdAt,value
2022-11-19T00:02:27.450Z,93.94
2022-11-19T00:04:55.946Z,93.73
2022-11-19T00:07:24.276Z,93.62
2022-11-19T00:09:52.505Z,93.56
2022-11-19T00:12:38.401Z,93.46
2022-11-19T00:15:07.789Z,93.35
2022-11-19T00:17:37.336Z,93.21
2022-11-19T00:20:06.085Z,93.39
2022-11-19T00:22:34.295Z,93.55
2022-11-19T00:25:02.790Z,93.70
2022-11-19T00:27:32.178Z,93.65
2022-11-19T00:30:00.568Z,93.47
2022-11-19T00:32:29.187Z,93.41
2022-11-19T00:34:59.051Z,93.35
2022-11-19T00:37:27.267Z,93.16
2022-11-19T00:39:55.534Z,93.21
2022-11-19T00:42:23.992Z,93.32
2022-11-19T00:44:52.479Z,93.32
2022-11-19T00:47:20.798Z,93.11
2022-11-19T00:49:49.009Z,93.08
2022-11-19T00:52:18.987Z,93.03
2022-11-19T00:54:47.174Z,92.84
2022-11-19T00:57:15.389Z,92.69
2022-11-19T00:59:43.586Z,92.38
2022-11-19T01:02:11.825Z,92.14
2022-11-19T01:04:40.108Z,92.11
2022-11-19T01:07:08.355Z,92.07
2022-11-19T01:09:37.990Z,92.01
2022-11-19T01:12:06.689Z,91.81
2022-11-19T01:14:34.844Z,91.68
2022-11-19T01:17:03.153Z,91.71
2022-11-19T01:19:31.461Z,91.82
2022-11-19T01:21:59.794Z,91.99
2022-11-19T01:24:27.946Z,92.24
2022-11-19T01:26:57.588Z,92.49
2022-11-19T01:29:25.766Z,92.48
2022-11-19T01:31:53.904Z,92.33
2022-11-19T01:34:22.089Z,92.34
2022-11-19T01:36:50.177Z,91.89
2022-11-19T01:39:19.833Z,91.91
2022-11-19T01:41:48.101Z,92.04
2022-11-19T01:45:01.669Z,92.21
2022-11-19T01:47:31.204Z,92.36
2022-11-19T01:50:00.426Z,92.55
2022-11-19T01:52:28.813Z,92.76
2022-11-19T01:54:57.132Z,92.95
2022-11-19T01:57:25.343Z,93.00
2022-11-19T01:59:53.968Z,92.97
2022-11-19T02:02:23.686Z,92.84
2022-11-19T02:04:57.187Z,92.74
2022-11-19T02:07:29.460Z,92.57
2022-11-19T02:09:58.975Z,92.53
2022-11-19T02:12:37.860Z,92.34
2022-11-19T02:15:26.642Z,92.37
2022-11-19T02:18:35.227Z,92.47
2022-11-19T02:21:18.640Z,92.31
2022-11-19T02:24:01.754Z,92.27
2022-11-19T02:27:18.881Z,92.13
2022-11-19T02:30:06.499Z,92.23
2022-11-19T02:32:37.896Z,92.33
2022-11-19T02:35:14.550Z,92.50
2022-11-19T02:37:46.238Z,92.75
2022-11-19T02:40:21.024Z,93.02
2022-11-19T02:43:00.253Z,93.33
2022-11-19T02:45:34.333Z,93.74
2022-11-19T02:48:07.589Z,93.75
2022-11-19T02:50:39.346Z,93.93
2022-11-19T02:53:07.664Z,94.09
2022-11-19T02:55:37.664Z,94.17
2022-11-19T02:58:10.463Z,94.20
2022-11-19T03:01:03.244Z,94.30
2022-11-19T03:03:49.881Z,94.35
2022-11-19T03:06:21.710Z,94.40
2022-11-19T03:08:53.304Z,94.50
2022-11-19T03:11:23.961Z,94.58
2022-11-19T03:14:22.961Z,94.59
2022-11-19T03:16:58.849Z,94.61
2022-11-19T03:19:35.141Z,94.63
2022-11-19T03:22:11.900Z,94.77
2022-11-19T03:24:45.509Z,94.69
2022-11-19T03:27:17.741Z,94.64
2022-11-19T03:29:55.682Z,94.82
2022-11-19T03:32:38.662Z,94.80
2022-11-19T03:35:12.638Z,95.40
2022-11-19T03:37:43.312Z,94.85
2022-11-19T03:40:16.372Z,94.73
2022-11-19T03:42:47.093Z,94.60
2022-11-19T03:45:19.675Z,94.46
2022-11-19T03:47:51.071Z,94.32
2022-11-19T03:50:26.117Z,94.33
2022-11-19T03:53:02.757Z,94.25
2022-11-19T03:55:36.631Z,94.52
2022-11-19T03:58:06.352Z,94.04
2022-11-19T04:00:34.891Z,93.94
2022-11-19T04:03:08.710Z,93.84
2022-11-19T04:05:36.904Z,93.80
2022-11-19T04:08:11.284Z,93.75
2022-11-19T04:10:39.473Z,93.67
2022-11-19T04:13:10.694Z,93.63
2022-11-19T04:15:41.660Z,93.56
2022-11-19T04:18:12.258Z,93.55
2022-11-19T04:20:40.439Z,93.52
2022-11-19T04:23:08.588Z,93.47
2022-11-19T04:25:40.389Z,93.51
2022-11-19T04:28:12.130Z,93.61
2022-11-19T04:30:44.704Z,93.60
2022-11-19T04:33:17.696Z,93.77
2022-11-19T04:35:49.196Z,93.79
2022-11-19T04:38:17.545Z,93.80
2022-11-19T04:40:48.663Z,93.75
2022-11-19T04:43:16.809Z,93.68
2022-11-19T04:45:45.511Z,93.64
2022-11-19T04:48:15.534Z,93.68
2022-11-19T04:50:45.985Z,93.60
2022-11-19T04:53:14.173Z,93.55
2022-11-19T04:55:42.806Z,93.57
2022-11-19T04:58:13.233Z,93.64
2022-11-19T05:00:44.635Z,93.51
2022-11-19T05:03:14.437Z,93.01
2022-11-19T05:05:43.081Z,92.63
2022-11-19T05:08:11.318Z,92.48
2022-11-19T05:10:41.168Z,92.43
2022-11-19T05:13:10.095Z,92.46
2022-11-19T05:15:39.471Z,92.55
2022-11-19T05:18:07.659Z,92.50
2022-11-19T05:20:39.922Z,92.50
2022-11-19T05:23:08.773Z,92.64
2022-11-19T05:25:38.797Z,92.81
2022-11-19T05:28:08.268Z,93.01
2022-11-19T05:30:36.529Z,93.37
2022-11-19T05:33:05.291Z,93.54
2022-11-19T05:35:33.522Z,93.79
2022-11-19T05:38:03.537Z,94.00
2022-11-19T05:40:31.676Z,94.04
2022-11-19T05:43:08.533Z,94.14
2022-11-19T05:45:36.832Z,94.09
2022-11-19T05:48:08.631Z,93.86
2022-11-19T05:50:36.966Z,93.62
2022-11-19T05:53:13.063Z,93.54
2022-11-19T05:55:41.178Z,93.62
2022-11-19T05:58:15.241Z,93.48
2022-11-19T06:00:43.920Z,93.55
2022-11-19T06:03:14.381Z,93.33
2022-11-19T06:05:45.919Z,92.98
2022-11-19T06:08:17.119Z,92.77
2022-11-19T06:10:45.433Z,92.59
2022-11-19T06:13:19.446Z,92.14
2022-11-19T06:15:47.672Z,91.95
2022-11-19T06:18:16.493Z,91.56
2022-11-19T06:20:44.646Z,91.39
2022-11-19T06:23:12.771Z,91.27
2022-11-19T06:25:43.759Z,91.33
2022-11-19T06:28:11.940Z,91.42
2022-11-19T06:30:40.228Z,91.60
2022-11-19T06:33:13.513Z,91.72
2022-11-19T06:35:41.717Z,91.46
2022-11-19T06:38:12.495Z,91.28
2022-11-19T06:40:43.182Z,91.11
2022-11-19T06:43:14.998Z,90.60
2022-11-19T06:45:48.609Z,90.73
2022-11-19T06:48:17.442Z,90.89
2022-11-19T06:50:46.322Z,90.92
2022-11-19T06:53:14.566Z,90.89
2022-11-19T06:55:44.163Z,90.66
2022-11-19T06:58:16.224Z,90.82
2022-11-19T07:00:47.103Z,90.62
2022-11-19T07:03:19.905Z,90.31
2022-11-19T07:05:48.499Z,90.55
2022-11-19T07:08:16.949Z,90.43
2022-11-19T07:10:46.490Z,89.97
2022-11-19T07:13:14.903Z,89.75
2022-11-19T07:15:43.194Z,89.22
2022-11-19T07:18:11.806Z,88.89
2022-11-19T07:20:39.956Z,88.66
2022-11-19T07:23:12.619Z,88.60
2022-11-19T07:25:40.935Z,88.38
2022-11-19T07:28:10.973Z,88.45
2022-11-19T07:30:42.708Z,88.55
2022-11-19T07:33:16.692Z,88.21
2022-11-19T07:35:44.921Z,87.58
2022-11-19T07:38:13.165Z,87.45
2022-11-19T07:40:41.305Z,87.51
2022-11-19T07:43:10.024Z,87.49
2022-11-19T07:45:39.220Z,87.22
2022-11-19T07:48:07.885Z,87.43
2022-11-19T07:50:40.993Z,87.65
2022-11-19T07:53:09.655Z,87.41
2022-11-19T07:55:38.584Z,87.61
2022-11-19T07:58:06.733Z,88.09
2022-11-19T08:00:37.423Z,87.55
2022-11-19T08:03:11.714Z,87.26
2022-11-19T08:05:41.730Z,86.94
2022-11-19T08:08:12.563Z,86.88
2022-11-19T08:10:40.789Z,87.06
2022-11-19T08:13:08.876Z,86.96
2022-11-19T08:15:49.154Z,87.35
2022-11-19T08:18:17.314Z,87.32
2022-11-19T08:20:48.354Z,87.54
2022-11-19T08:23:16.621Z,87.76
2022-11-19T08:25:48.273Z,87.98
2022-11-19T08:28:18.339Z,87.99
2022-11-19T08:30:47.949Z,87.38
2022-11-19T08:33:16.165Z,87.15
2022-11-19T08:35:49.217Z,86.45
2022-11-19T08:38:17.457Z,85.51
2022-11-19T08:41:14.750Z,85.45
2022-11-19T08:43:42.110Z,85.34
2022-11-19T08:46:12.294Z,85.66
2022-11-19T08:48:43.357Z,85.11
2022-11-19T08:51:14.790Z,84.72
2022-11-19T08:53:43.741Z,85.20
2022-11-19T08:56:18.042Z,85.97
2022-11-19T08:58:46.717Z,86.03
2022-11-19T09:01:21.299Z,85.22
2022-11-19T09:03:52.861Z,84.68
2022-11-19T09:06:21.187Z,84.01
2022-11-19T09:08:49.359Z,83.88
2022-11-19T09:11:21.702Z,84.27
2022-11-19T09:13:49.972Z,84.63
2022-11-19T09:16:20.040Z,84.39
2022-11-19T09:18:48.680Z,83.59
2022-11-19T09:21:18.392Z,84.25
2022-11-19T09:23:48.195Z,84.31
2022-11-19T09:26:20.296Z,84.64
2022-11-19T09:28:49.433Z,85.04
2022-11-19T09:31:21.086Z,85.46
2022-11-19T09:33:50.946Z,85.36
2022-11-19T09:36:20.315Z,85.17
2022-11-19T09:38:48.968Z,85.20
2022-11-19T09:41:32.908Z,85.23
2022-11-19T09:44:13.093Z,85.03
2022-11-19T09:46:57.847Z,85.34
2022-11-19T09:49:32.120Z,85.02
2022-11-19T09:52:08.514Z,85.13
2022-11-19T09:54:45.416Z,85.55
2022-11-19T09:57:18.236Z,85.80
2022-11-19T09:59:53.024Z,85.82
2022-11-19T10:02:24.860Z,85.29
2022-11-19T10:04:53.986Z,84.98
2022-11-19T10:07:30.415Z,85.04
2022-11-19T10:10:12.295Z,85.39
2022-11-19T10:13:11.763Z,84.80
2022-11-19T10:15:57.119Z,84.71
2022-11-19T10:18:37.281Z,84.97
2022-11-19T10:21:11.972Z,84.67
2022-11-19T10:23:49.486Z,85.06
2022-11-19T10:26:19.573Z,85.42
2022-11-19T10:28:55.430Z,85.20
2022-11-19T10:31:30.807Z,85.15
2022-11-19T10:34:07.299Z,83.71
2022-11-19T10:36:42.349Z,83.77
2022-11-19T10:39:19.390Z,83.89
2022-11-19T10:41:53.227Z,83.78
2022-11-19T10:44:39.998Z,83.61
2022-11-19T10:47:15.185Z,83.71
2022-11-19T10:49:45.731Z,83.65
2022-11-19T10:52:24.871Z,83.42
2022-11-19T10:54:59.147Z,83.32
2022-11-19T10:57:30.688Z,82.94
2022-11-19T10:59:59.250Z,83.51
2022-11-19T11:02:33.434Z,84.28
2022-11-19T11:05:12.204Z,83.58
2022-11-19T11:07:55.149Z,83.90
2022-11-19T11:10:44.203Z,83.28
2022-11-19T11:13:36.977Z,83.20
2022-11-19T11:16:08.395Z,83.78
2022-11-19T11:18:40.728Z,83.83
2022-11-19T11:21:22.255Z,83.50
2022-11-19T11:23:54.514Z,83.03
2022-11-19T11:26:24.972Z,83.68
2022-11-19T11:29:00.286Z,83.44
2022-11-19T11:31:34.315Z,83.23
2022-11-19T11:34:04.113Z,82.73
2022-11-19T11:36:36.722Z,82.92
2022-11-19T11:39:06.630Z,83.58
2022-11-19T11:42:05.420Z,83.72
2022-11-19T11:44:30.122Z,84.01
2022-11-19T11:47:01.794Z,83.37
2022-11-19T11:49:36.187Z,83.37
2022-11-19T11:52:19.899Z,83.02
2022-11-19T11:54:59.937Z,83.16
2022-11-19T11:57:30.859Z,82.78
2022-11-19T11:59:59.092Z,83.39
2022-11-19T12:02:30.966Z,83.39
2022-11-19T12:05:02.545Z,84.04
2022-11-19T12:08:03.801Z,83.81
2022-11-19T12:10:44.259Z,83.55
2022-11-19T12:13:30.953Z,83.90
2022-11-19T12:16:08.149Z,84.06
2022-11-19T12:18:43.801Z,83.77
2022-11-19T12:21:14.586Z,83.55
2022-11-19T12:24:02.475Z,83.43
2022-11-19T12:26:40.002Z,83.45
2022-11-19T12:29:19.477Z,83.36
2022-11-19T12:32:12.634Z,82.97
2022-11-19T12:35:09.775Z,82.79
2022-11-19T12:38:07.670Z,83.23
2022-11-19T12:40:47.131Z,82.95
2022-11-19T12:43:30.032Z,82.75
2022-11-19T12:46:08.509Z,83.15
2022-11-19T12:49:02.800Z,82.94
2022-11-19T12:51:44.529Z,82.83
2022-11-19T12:54:35.621Z,82.92
2022-11-19T12:57:21.075Z,82.90
2022-11-19T13:00:10.380Z,82.51
2022-11-19T13:02:46.776Z,82.56
2022-11-19T13:05:18.700Z,82.76
2022-11-19T13:07:53.506Z,82.75
2022-11-19T13:10:25.954Z,82.55
2022-11-19T13:12:58.084Z,82.45
2022-11-19T13:15:31.234Z,82.96
2022-11-19T13:18:03.381Z,82.87
2022-11-19T13:20:41.692Z,82.64
2022-11-19T13:23:16.500Z,82.89
2022-11-19T13:25:51.474Z,83.51
2022-11-19T13:28:26.780Z,83.69
2022-11-19T13:30:59.493Z,83.42
2022-11-19T13:33:31.831Z,83.96
2022-11-19T13:36:05.466Z,83.58
2022-11-19T13:38:44.642Z,83.45
2022-11-19T13:41:17.514Z,82.84
2022-11-19T13:44:05.113Z,82.96
2022-11-19T13:46:38.821Z,83.26
2022-11-19T13:49:13.980Z,83.36
2022-11-19T13:51:46.782Z,83.41
2022-11-19T13:54:25.082Z,83.20
2022-11-19T13:56:56.920Z,82.87
2022-11-19T13:59:30.275Z,82.67
2022-11-19T14:02:40.829Z,82.55
2022-11-19T14:05:36.373Z,82.39
2022-11-19T14:08:24.857Z,82.66
2022-11-19T14:11:08.014Z,83.42
2022-11-19T14:13:51.963Z,83.31
2022-11-19T14:16:47.053Z,83.14
2022-11-19T14:19:35.269Z,83.18
2022-11-19T14:22:51.781Z,83.10
2022-11-19T14:26:00.811Z,83.14
2022-11-19T14:28:42.920Z,83.06
2022-11-19T14:31:11.701Z,83.68
2022-11-19T14:33:58.722Z,83.42
2022-11-19T14:36:38.822Z,83.40
2022-11-19T14:39:17.685Z,83.45
2022-11-19T14:41:46.380Z,83.36
2022-11-19T14:44:33.727Z,83.12
2022-11-19T14:47:33.753Z,83.47
2022-11-19T14:50:07.638Z,83.36
2022-11-19T14:52:39.872Z,82.91
2022-11-19T14:55:21.831Z,82.81
2022-11-19T14:57:58.030Z,83.31
2022-11-19T15:00:33.286Z,83.10
2022-11-19T15:03:03.728Z,82.64
2022-11-19T15:05:34.995Z,82.47
2022-11-19T15:08:44.190Z,82.46
2022-11-19T15:11:14.161Z,82.39
2022-11-19T15:13:44.566Z,82.78
2022-11-19T15:16:16.026Z,82.95
2022-11-19T15:19:19.235Z,82.48
2022-11-19T15:22:23.284Z,82.66
2022-11-19T15:25:18.430Z,83.18
2022-11-19T15:27:59.524Z,83.45
2022-11-19T15:30:39.302Z,83.15
2022-11-19T15:33:28.014Z,83.23
2022-11-19T15:36:12.431Z,83.36
2022-11-19T15:38:46.166Z,83.35
2022-11-19T15:41:19.668Z,83.39
2022-11-19T15:43:51.964Z,82.95
2022-11-19T15:46:29.985Z,82.68
2022-11-19T15:49:05.173Z,82.72
2022-11-19T15:51:40.968Z,83.36
2022-11-19T15:54:13.650Z,82.95
2022-11-19T15:56:48.279Z,83.01
2022-11-19T15:59:20.200Z,82.65
2022-11-19T16:01:59.487Z,83.29
2022-11-19T16:04:33.099Z,83.13
2022-11-19T16:07:02.301Z,82.97
2022-11-19T16:09:32.455Z,82.91
2022-11-19T16:12:18.005Z,82.67
2022-11-19T16:15:08.607Z,83.00
2022-11-19T16:17:43.873Z,83.30
2022-11-19T16:20:21.980Z,83.10
2022-11-19T16:22:58.592Z,83.32
2022-11-19T16:25:34.258Z,82.90
2022-11-19T16:28:06.917Z,83.07
2022-11-19T16:30:44.089Z,82.87
2022-11-19T16:33:17.985Z,82.66
2022-11-19T16:35:52.402Z,82.41
2022-11-19T16:38:26.928Z,82.49
2022-11-19T16:41:14.976Z,82.71
2022-11-19T16:43:47.105Z,82.91
2022-11-19T16:46:18.545Z,82.93
2022-11-19T16:48:58.304Z,82.57
2022-11-19T16:51:33.819Z,82.63
2022-11-19T16:54:03.029Z,82.23
2022-11-19T16:56:43.704Z,82.61
2022-11-19T16:59:19.718Z,82.27
2022-11-19T17:01:54.464Z,82.27
2022-11-19T17:04:25.191Z,82.11
2022-11-19T17:06:53.614Z,82.21
2022-11-19T17:09:33.100Z,82.24
2022-11-19T17:12:21.039Z,82.20
2022-11-19T17:14:52.511Z,82.41
2022-11-19T17:17:41.508Z,82.78
2022-11-19T17:20:50.175Z,82.78
2022-11-19T17:23:20.186Z,83.08
2022-11-19T17:25:50.683Z,82.65
2022-11-19T17:28:24.024Z,82.24
2022-11-19T17:30:52.432Z,82.31
2022-11-19T17:33:22.914Z,82.26
2022-11-19T17:35:52.061Z,82.49
2022-11-19T17:38:23.895Z,82.68
2022-11-19T17:40:54.443Z,82.40
2022-11-19T17:43:43.653Z,82.40
2022-11-19T17:46:11.906Z,82.21
2022-11-19T17:48:42.380Z,82.23
2022-11-19T17:51:12.856Z,82.54
2022-11-19T17:53:41.167Z,82.57
2022-11-19T17:56:17.413Z,82.59
2022-11-19T17:58:47.285Z,82.61
2022-11-19T18:01:16.059Z,82.51
2022-11-19T18:03:44.862Z,82.30
2022-11-19T18:06:14.040Z,82.57
2022-11-19T18:08:43.150Z,82.39
2022-11-19T18:11:13.755Z,82.59
2022-11-19T18:13:44.004Z,82.67
2022-11-19T18:16:16.749Z,83.10
2022-11-19T18:18:45.097Z,83.01
2022-11-19T18:21:15.675Z,83.19
2022-11-19T18:23:46.160Z,82.74
2022-11-19T18:26:16.277Z,82.47
2022-11-19T18:28:48.759Z,82.65
2022-11-19T18:31:21.452Z,82.68
2022-11-19T18:33:50.915Z,82.72
2022-11-19T18:36:19.554Z,82.84
2022-11-19T18:38:48.232Z,82.91
2022-11-19T18:41:18.948Z,82.63
2022-11-19T18:44:05.294Z,82.47
2022-11-19T18:46:35.283Z,82.63
2022-11-19T18:49:04.394Z,82.35
2022-11-19T18:51:35.046Z,82.62
2022-11-19T18:54:03.329Z,82.54
2022-11-19T18:56:33.382Z,82.52
2022-11-19T18:59:04.694Z,82.56
2022-11-19T19:01:35.549Z,82.61
2022-11-19T19:04:03.832Z,82.55
2022-11-19T19:06:34.372Z,82.37
2022-11-19T19:09:02.651Z,82.26
2022-11-19T19:11:49.674Z,82.46
2022-11-19T19:14:17.996Z,82.30
2022-11-19T19:16:47.560Z,81.99
2022-11-19T19:19:17.268Z,81.73
2022-11-19T19:21:45.502Z,81.73
2022-11-19T19:24:13.873Z,81.77
2022-11-19T19:26:42.699Z,81.88
2022-11-19T19:29:11.175Z,81.71
2022-11-19T19:31:42.446Z,81.75
2022-11-19T19:34:12.043Z,81.61
2022-11-19T19:36:40.293Z,81.78
2022-11-19T19:39:08.722Z,81.80
2022-11-19T19:41:37.027Z,81.62
2022-11-19T19:44:07.711Z,81.64
2022-11-19T19:46:35.903Z,81.72
2022-11-19T19:49:04.421Z,81.26
2022-11-19T19:51:34.972Z,81.25
2022-11-19T19:54:03.180Z,81.04
2022-11-19T19:56:34.648Z,80.98
2022-11-19T19:59:03.286Z,80.87
2022-11-19T20:01:33.765Z,80.78
2022-11-19T20:04:08.004Z,81.10
2022-11-19T20:06:41.457Z,81.21
2022-11-19T20:09:09.858Z,81.33
2022-11-19T20:11:38.709Z,81.02
2022-11-19T20:14:08.430Z,80.85
2022-11-19T20:16:40.577Z,80.95
2022-11-19T20:19:11.535Z,81.15
2022-11-19T20:21:42.266Z,80.78
2022-11-19T20:24:12.823Z,81.01
2022-11-19T20:26:43.204Z,81.25
2022-11-19T20:29:13.280Z,81.12
2022-11-19T20:31:42.275Z,81.11
2022-11-19T20:34:12.875Z,81.07
2022-11-19T20:36:42.483Z,81.07
2022-11-19T20:39:10.681Z,81.01
2022-11-19T20:41:56.193Z,80.99
2022-11-19T20:44:24.421Z,81.14
2022-11-19T20:46:55.627Z,80.46
2022-11-19T20:49:25.871Z,80.89
2022-11-19T20:51:56.372Z,81.13
2022-11-19T20:54:26.100Z,80.40
2022-11-19T20:56:56.586Z,80.71
2022-11-19T20:59:26.391Z,80.72
2022-11-19T21:01:55.679Z,80.61
2022-11-19T21:04:25.421Z,80.67
2022-11-19T21:06:55.115Z,80.63
2022-11-19T21:09:23.618Z,81.10
2022-11-19T21:11:52.311Z,80.64
2022-11-19T21:14:20.544Z,81.13
2022-11-19T21:16:48.738Z,81.60
2022-11-19T21:19:16.947Z,81.87
2022-11-19T21:21:45.646Z,81.08
2022-11-19T21:24:15.413Z,81.47
2022-11-19T21:26:43.791Z,80.96
2022-11-19T21:29:12.616Z,81.74
2022-11-19T21:31:42.216Z,81.14
2022-11-19T21:34:12.420Z,81.35
2022-11-19T21:36:41.849Z,81.84
2022-11-19T21:39:11.256Z,81.88
2022-11-19T21:41:41.300Z,81.88
2022-11-19T21:44:09.918Z,82.04
2022-11-19T21:46:38.129Z,81.50
2022-11-19T21:49:08.293Z,81.49
2022-11-19T21:51:36.460Z,81.65
2022-11-19T21:54:05.873Z,81.36
2022-11-19T21:56:38.548Z,81.44
2022-11-19T21:59:09.353Z,81.46
2022-11-19T22:01:37.627Z,81.46
2022-11-19T22:04:07.561Z,81.83
2022-11-19T22:06:35.865Z,81.62
2022-11-19T22:09:04.157Z,81.89
2022-11-19T22:11:33.072Z,81.95
2022-11-19T22:14:03.660Z,81.51
2022-11-19T22:16:38.230Z,81.78
2022-11-19T22:19:07.593Z,81.79
2022-11-19T22:21:35.935Z,82.12
2022-11-19T22:24:04.336Z,82.12
2022-11-19T22:26:33.303Z,81.84
2022-11-19T22:29:01.571Z,81.70
2022-11-19T22:31:29.912Z,81.56
2022-11-19T22:34:01.037Z,81.12
2022-11-19T22:36:35.596Z,81.30
2022-11-19T22:39:07.488Z,81.13
2022-11-19T22:41:36.106Z,81.44
2022-11-19T22:44:05.238Z,81.42
2022-11-19T22:46:33.517Z,81.31
2022-11-19T22:49:03.082Z,81.59
2022-11-19T22:51:31.770Z,81.58
2022-11-19T22:54:00.063Z,81.84
2022-11-19T22:56:29.971Z,81.63
2022-11-19T22:58:59.031Z,81.68
2022-11-19T23:01:29.560Z,81.37
2022-11-19T23:03:59.664Z,81.88
2022-11-19T23:06:29.326Z,82.36
2022-11-19T23:08:57.757Z,81.61
2022-11-19T23:11:44.554Z,82.26
2022-11-19T23:14:14.420Z,81.62
2022-11-19T23:16:43.547Z,81.79
2022-11-19T23:19:13.777Z,82.10
2022-11-19T23:21:44.498Z,81.78
2022-11-19T23:24:12.856Z,81.62
2022-11-19T23:26:41.084Z,81.56
2022-11-19T23:29:09.551Z,81.20
2022-11-19T23:31:40.065Z,80.62
2022-11-19T23:34:08.298Z,81.20
2022-11-19T23:36:40.342Z,81.26
2022-11-19T23:39:15.718Z,81.20
2022-11-19T23:41:44.473Z,81.17
2022-11-19T23:44:12.774Z,80.72
2022-11-19T23:46:41.227Z,81.33
2022-11-19T23:49:10.137Z,80.78
2022-11-19T23:51:40.104Z,81.87
2022-11-19T23:54:08.354Z,81.97
2022-11-19T23:56:37.948Z,82.34
2022-11-19T23:59:07.901Z,82.03
